Aérodrome :
LOGIN :

S'inscrire | Disclaimer

   EN    FR    IT 

 










Légende :    VFR   VFR Marginal   IFR   IFR Intensif   IFR Très Intensif
Visi : 
Plafond : 
>= 8 km
>= 3000ft
5 à 8 km
1000 à 3000 ft
1500m à 5 km
500 à 1000 ft
800 à 1500m
200 à 500 ft
< 800m
< 200 ft
Symboles :   Orages  Brouillard  Fortes neiges  Fortes précipitations  Vent > 20 kt
SIGMETs :   Divers  Orages  Givrage  Turbulence  Onde Orograph.  Cendres Volcan.






- Altitude de l'aérodrome : 7 ft
- Code IATA : XHE


LFTH - Hyeres

DERNIER METAR :
  • 171300Z AUTO 16010KT 9999 BKN045 OVC052 22/16 Q1018 NOSIG

METARs EXPIRÉS :
  • 171230Z AUTO 16011KT 9999 BKN046 BKN066 22/16 Q1018 NOSIG
  • 171200Z AUTO 15011KT 9999 FEW040 SCT046 BKN058 23/16 Q1018 NOSIG
  • 171130Z AUTO 16010KT 120V180 9999 BKN040 BKN058 OVC068 23/15 Q1018 NOSIG
  • 171100Z AUTO 15010KT 120V180 9999 BKN038 OVC068 22/16 Q1019 NOSIG
  • 171030Z AUTO 16011KT 9999 BKN037 OVC066 22/16 Q1019 NOSIG

TAF TAF LFTH
Valide du 17 à 09h jusqu'au 18 à 09h UTC


170800Z 1709/1809 13010KT 9999 BKN030
BECMG 1800/1802 03005KT BKN014
BECMG 1807/1809 -RA OVC008



MET'MAP, la Météo Aéronautique d'un coup d'oeil ! - Copyright ORBIFLY Décembre 2007 - Disclaimer

ORBIFLY MET'MAP TEAM :

Programmation & Développement : Alexandra Zaïnal
Conception & Développement : Baudouin d'Aumeries
Co-Programmation & Développement : Marc-Olivier Méhu
Soutien technique & logistique : Manuel Goepfert

Contact : metmap@orbifly.com




SOURCES & CREDITS :

   NOAA